createdAt,value
2018-06-17T00:00:17.150Z,76.21
2018-06-17T00:01:17.094Z,77.36
2018-06-17T00:02:17.027Z,77.56
2018-06-17T00:03:16.953Z,77.65
2018-06-17T00:04:16.885Z,77.36
2018-06-17T00:05:16.845Z,77.36
2018-06-17T00:06:16.758Z,77.65
2018-06-17T00:07:16.684Z,77.46
2018-06-17T00:08:16.621Z,77.56
2018-06-17T00:09:16.574Z,77.56
2018-06-17T00:10:16.500Z,77.75
2018-06-17T00:11:16.484Z,77.46
2018-06-17T00:12:16.371Z,78.61
2018-06-17T00:13:16.296Z,79.38
2018-06-17T00:14:16.248Z,79.00
2018-06-17T00:15:16.174Z,79.77
2018-06-17T00:16:16.104Z,80.15
2018-06-17T00:17:16.048Z,79.67
2018-06-17T00:18:15.970Z,79.48
2018-06-17T00:19:15.908Z,79.67
2018-06-17T00:20:15.848Z,78.81
2018-06-17T00:21:15.786Z,79.10
2018-06-17T00:22:15.720Z,79.48
2018-06-17T00:23:15.640Z,79.28
2018-06-17T00:24:15.595Z,79.10
2018-06-17T00:25:15.531Z,80.06
2018-06-17T00:26:15.461Z,79.77
2018-06-17T00:27:15.399Z,79.67
2018-06-17T00:28:15.328Z,79.86
2018-06-17T00:29:15.262Z,80.35
2018-06-17T00:30:15.205Z,81.07
2018-06-17T00:31:15.139Z,81.37
2018-06-17T00:32:15.075Z,81.84
2018-06-17T00:33:15.008Z,81.94
2018-06-17T00:34:14.936Z,81.84
2018-06-17T00:35:14.880Z,81.12
2018-06-17T00:36:14.809Z,80.83
2018-06-17T00:37:14.732Z,80.63
2018-06-17T00:38:14.684Z,80.54
2018-06-17T00:39:14.605Z,81.56
2018-06-17T00:40:14.552Z,81.94
2018-06-17T00:41:14.485Z,81.75
2018-06-17T00:42:14.423Z,82.04
2018-06-17T00:43:14.346Z,82.23
2018-06-17T00:44:14.276Z,82.42
2018-06-17T00:45:14.239Z,82.42
2018-06-17T00:46:14.158Z,82.32
2018-06-17T00:47:14.144Z,81.56
2018-06-17T00:48:14.026Z,81.30
2018-06-17T00:49:13.948Z,81.27
2018-06-17T00:50:13.903Z,81.46
2018-06-17T00:51:13.824Z,80.63
2018-06-17T00:52:13.773Z,80.44
2018-06-17T00:53:13.696Z,80.44
2018-06-17T00:54:13.631Z,80.73
2018-06-17T00:55:13.560Z,81.17
2018-06-17T00:56:13.519Z,81.75
2018-06-17T00:57:13.434Z,82.14
2018-06-17T00:58:13.385Z,82.08
2018-06-17T00:59:13.306Z,81.79
2018-06-17T01:00:13.247Z,81.75
2018-06-17T01:01:13.175Z,81.75
2018-06-17T01:02:13.124Z,81.12
2018-06-17T01:03:13.040Z,82.04
2018-06-17T01:04:12.974Z,82.52
2018-06-17T01:05:12.924Z,83.77
2018-06-17T01:06:12.850Z,84.78
2018-06-17T01:07:12.788Z,84.78
2018-06-17T01:08:12.726Z,84.63
2018-06-17T01:09:12.656Z,84.98
2018-06-17T01:10:12.599Z,84.73
2018-06-17T01:11:12.523Z,85.21
2018-06-17T01:12:12.462Z,84.92
2018-06-17T01:13:12.409Z,84.88
2018-06-17T01:14:12.335Z,84.83
2018-06-17T01:15:12.272Z,84.50
2018-06-17T01:16:12.195Z,83.77
2018-06-17T01:17:12.176Z,83.86
2018-06-17T01:18:12.073Z,84.06
2018-06-17T01:19:12.018Z,83.86
2018-06-17T01:20:11.935Z,83.19
2018-06-17T01:21:11.874Z,83.29
2018-06-17T01:22:11.818Z,83.67
2018-06-17T01:23:11.749Z,83.29
2018-06-17T01:24:11.691Z,83.29
2018-06-17T01:25:11.617Z,83.19
2018-06-17T01:26:11.543Z,82.04
2018-06-17T01:27:11.484Z,82.52
2018-06-17T01:28:11.420Z,81.79
2018-06-17T01:29:11.354Z,81.27
2018-06-17T01:30:11.292Z,81.50
2018-06-17T01:31:11.216Z,81.56
2018-06-17T01:32:11.163Z,81.46
2018-06-17T01:33:11.097Z,81.40
2018-06-17T01:34:11.033Z,81.60
2018-06-17T01:35:10.985Z,81.40
2018-06-17T01:36:10.904Z,81.21
2018-06-17T01:37:10.839Z,80.63
2018-06-17T01:38:10.758Z,80.92
2018-06-17T01:39:10.705Z,80.83
2018-06-17T01:40:10.637Z,81.60
2018-06-17T01:41:10.626Z,81.79
2018-06-17T01:42:10.506Z,81.37
2018-06-17T01:43:10.432Z,81.46
2018-06-17T01:44:10.384Z,82.71
2018-06-17T01:45:10.319Z,83.92
2018-06-17T01:46:10.245Z,84.40
2018-06-17T01:47:10.190Z,84.40
2018-06-17T01:48:10.121Z,84.98
2018-06-17T01:49:10.049Z,85.65
2018-06-17T01:50:10.003Z,85.07
2018-06-17T01:51:09.914Z,85.07
2018-06-17T01:52:09.848Z,84.78
2018-06-17T01:53:09.802Z,84.40
2018-06-17T01:54:09.733Z,84.88
2018-06-17T01:55:09.657Z,84.98
2018-06-17T01:56:09.596Z,84.78
2018-06-17T01:57:09.535Z,85.17
2018-06-17T01:58:09.471Z,84.94
2018-06-17T01:59:09.398Z,85.41
2018-06-17T02:00:09.336Z,85.65
2018-06-17T02:01:09.279Z,84.98
2018-06-17T02:02:09.199Z,84.59
2018-06-17T02:03:09.143Z,85.03
2018-06-17T02:04:09.066Z,85.36
2018-06-17T02:05:09.015Z,84.88
2018-06-17T02:06:08.971Z,84.26
2018-06-17T02:07:08.877Z,85.27
2018-06-17T02:08:08.804Z,85.51
2018-06-17T02:09:08.732Z,85.71
2018-06-17T02:10:08.689Z,85.61
2018-06-17T02:11:08.615Z,84.94
2018-06-17T02:12:08.550Z,85.32
2018-06-17T02:13:08.482Z,85.32
2018-06-17T02:14:08.424Z,84.55
2018-06-17T02:15:08.358Z,84.84
2018-06-17T02:16:08.288Z,85.32
2018-06-17T02:17:08.218Z,85.61
2018-06-17T02:18:08.147Z,84.84
2018-06-17T02:19:08.090Z,84.94
2018-06-17T02:20:08.028Z,84.84
2018-06-17T02:21:07.942Z,84.84
2018-06-17T02:22:07.877Z,84.36
2018-06-17T02:23:07.845Z,84.07
2018-06-17T02:24:07.815Z,84.17
2018-06-17T02:25:07.703Z,84.07
2018-06-17T02:26:07.616Z,84.07
2018-06-17T02:27:07.571Z,84.36
2018-06-17T02:28:07.490Z,84.26
2018-06-17T02:29:07.438Z,84.17
2018-06-17T02:30:07.362Z,83.93
2018-06-17T02:31:07.289Z,84.03
2018-06-17T02:32:07.239Z,84.07
2018-06-17T02:33:07.170Z,84.12
2018-06-17T02:34:07.107Z,83.54
2018-06-17T02:35:07.037Z,84.31
2018-06-17T02:36:06.979Z,83.45
2018-06-17T02:37:06.917Z,83.74
2018-06-17T02:38:06.833Z,83.30
2018-06-17T02:39:06.783Z,82.87
2018-06-17T02:40:06.731Z,82.68
2018-06-17T02:41:06.640Z,83.07
2018-06-17T02:42:06.574Z,82.68
2018-06-17T02:43:06.492Z,82.87
2018-06-17T02:44:06.450Z,82.20
2018-06-17T02:45:06.364Z,82.10
2018-06-17T02:46:06.307Z,82.20
2018-06-17T02:47:06.239Z,82.15
2018-06-17T02:48:06.183Z,82.24
2018-06-17T02:49:06.106Z,82.34
2018-06-17T02:50:06.038Z,81.86
2018-06-17T02:51:05.976Z,81.76
2018-06-17T02:52:05.917Z,81.76
2018-06-17T02:53:05.843Z,81.34
2018-06-17T02:54:05.815Z,81.15
2018-06-17T02:55:05.707Z,80.76
2018-06-17T02:56:05.656Z,80.19
2018-06-17T02:57:05.585Z,79.90
2018-06-17T02:58:05.531Z,80.19
2018-06-17T02:59:05.438Z,79.71
2018-06-17T03:00:05.375Z,80.19
2018-06-17T03:01:05.339Z,79.90
2018-06-17T03:02:05.250Z,80.19
2018-06-17T03:03:05.190Z,79.65
2018-06-17T03:05:05.104Z,79.99
2018-06-17T03:06:04.987Z,80.09
2018-06-17T03:07:04.933Z,80.09
2018-06-17T03:08:04.861Z,80.13
2018-06-17T03:09:04.790Z,80.04
2018-06-17T03:10:04.762Z,79.94
2018-06-17T03:11:04.662Z,79.65
2018-06-17T03:12:04.597Z,79.75
2018-06-17T03:13:04.522Z,79.75
2018-06-17T03:14:04.471Z,79.84
2018-06-17T03:15:04.397Z,79.94
2018-06-17T03:16:04.341Z,79.27
2018-06-17T03:17:04.265Z,79.94
2018-06-17T03:18:04.195Z,79.84
2018-06-17T03:19:04.121Z,79.27
2018-06-17T03:20:04.064Z,79.46
2018-06-17T03:21:04.757Z,78.98
2018-06-17T03:22:04.030Z,79.27
2018-06-17T03:23:03.926Z,79.17
2018-06-17T03:24:03.796Z,78.98
2018-06-17T03:25:03.742Z,79.27
2018-06-17T03:26:03.672Z,79.27
2018-06-17T03:27:03.603Z,79.84
2018-06-17T03:28:03.545Z,79.17
2018-06-17T03:29:03.468Z,79.07
2018-06-17T03:30:03.398Z,79.17
2018-06-17T03:31:03.341Z,79.27
2018-06-17T03:32:03.283Z,79.27
2018-06-17T03:33:03.217Z,79.17
2018-06-17T03:34:03.151Z,79.27
2018-06-17T03:35:03.090Z,79.36
2018-06-17T03:36:03.004Z,79.40
2018-06-17T03:37:02.963Z,79.36
2018-06-17T03:38:02.878Z,79.07
2018-06-17T03:39:02.818Z,79.36
2018-06-17T03:40:02.753Z,78.98
2018-06-17T03:41:02.689Z,78.69
2018-06-17T03:42:02.618Z,78.55
2018-06-17T03:43:02.562Z,78.84
2018-06-17T03:44:02.484Z,78.75
2018-06-17T03:45:02.424Z,78.59
2018-06-17T03:46:02.358Z,78.69
2018-06-17T03:47:02.299Z,78.69
2018-06-17T03:48:02.234Z,78.94
2018-06-17T03:49:02.169Z,78.84
2018-06-17T03:50:02.089Z,78.88
2018-06-17T03:51:02.026Z,78.75
2018-06-17T03:52:01.968Z,78.69
2018-06-17T03:53:01.897Z,78.78
2018-06-17T03:54:01.833Z,78.59
2018-06-17T03:55:01.779Z,78.02
2018-06-17T03:56:01.708Z,77.92
2018-06-17T03:57:01.631Z,78.40
2018-06-17T03:58:01.578Z,78.30
2018-06-17T03:59:01.505Z,78.11
2018-06-17T04:00:01.435Z,78.50
2018-06-17T04:01:01.365Z,78.53
2018-06-17T04:02:01.314Z,78.21
2018-06-17T04:03:01.239Z,77.83
2018-06-17T04:04:01.215Z,78.02
2018-06-17T04:05:01.112Z,77.44
2018-06-17T04:06:01.044Z,77.40
2018-06-17T04:07:00.988Z,77.01
2018-06-17T04:08:00.904Z,76.54
2018-06-17T04:09:00.854Z,76.25
2018-06-17T04:10:00.790Z,76.29
2018-06-17T04:11:00.708Z,76.09
2018-06-17T04:12:00.645Z,76.19
2018-06-17T04:13:00.583Z,76.64
2018-06-17T04:14:00.517Z,76.25
2018-06-17T04:15:00.444Z,75.29
2018-06-17T04:16:00.393Z,74.52
2018-06-17T04:17:00.316Z,73.75
2018-06-17T04:18:00.250Z,73.85
2018-06-17T04:19:00.191Z,72.31
2018-06-17T04:20:00.115Z,72.89
2018-06-17T04:21:00.084Z,73.27
2018-06-17T04:21:59.984Z,73.46
2018-06-17T04:22:59.929Z,74.04
2018-06-17T04:23:59.868Z,74.52
2018-06-17T04:24:59.782Z,75.13
2018-06-17T04:25:59.737Z,74.94
2018-06-17T04:26:59.675Z,75.04
2018-06-17T04:27:59.596Z,74.94
2018-06-17T04:28:59.536Z,75.62
2018-06-17T04:29:59.462Z,75.42
2018-06-17T04:30:59.433Z,75.38
2018-06-17T04:31:59.322Z,75.10
2018-06-17T04:32:59.264Z,74.62
2018-06-17T04:33:59.206Z,75.29
2018-06-17T04:34:59.139Z,75.20
2018-06-17T04:35:59.079Z,75.20
2018-06-17T04:36:59.007Z,75.38
2018-06-17T04:37:58.936Z,74.94
2018-06-17T04:38:58.878Z,75.10
2018-06-17T04:39:58.818Z,74.90
2018-06-17T04:40:58.747Z,75.20
2018-06-17T04:41:58.673Z,74.13
2018-06-17T04:42:58.602Z,73.94
2018-06-17T04:43:58.551Z,73.75
2018-06-17T04:44:58.474Z,73.75
2018-06-17T04:45:58.422Z,73.75
2018-06-17T04:46:58.349Z,73.75
2018-06-17T04:47:58.281Z,73.75
2018-06-17T04:48:58.214Z,73.75
2018-06-17T04:49:58.142Z,72.89
2018-06-17T04:50:58.088Z,72.99
2018-06-17T04:51:58.014Z,72.50
2018-06-17T04:52:57.962Z,72.41
2018-06-17T04:53:57.889Z,72.50
2018-06-17T04:54:57.826Z,72.22
2018-06-17T04:55:57.761Z,72.41
2018-06-17T04:56:57.689Z,72.22
2018-06-17T04:57:57.623Z,72.22
2018-06-17T04:58:57.569Z,72.22
2018-06-17T04:59:57.573Z,73.11
2018-06-17T05:00:57.434Z,72.41
2018-06-17T05:01:57.382Z,72.50
2018-06-17T05:02:57.298Z,72.60
2018-06-17T05:03:57.231Z,72.83
2018-06-17T05:04:57.159Z,72.83
2018-06-17T05:05:57.090Z,73.11
2018-06-17T05:06:57.042Z,73.50
2018-06-17T05:07:56.977Z,73.50
2018-06-17T05:08:56.908Z,72.02
2018-06-17T05:09:56.831Z,71.83
2018-06-17T05:10:56.773Z,71.64
2018-06-17T05:11:56.712Z,71.55
2018-06-17T05:12:56.626Z,71.55
2018-06-17T05:13:56.580Z,71.16
2018-06-17T05:14:56.526Z,71.35
2018-06-17T05:15:56.440Z,71.35
2018-06-17T05:16:56.395Z,71.77
2018-06-17T05:17:56.319Z,71.96
2018-06-17T05:18:56.253Z,72.34
2018-06-17T05:19:56.194Z,72.83
2018-06-17T05:20:56.123Z,72.54
2018-06-17T05:21:56.057Z,71.96
2018-06-17T05:22:55.991Z,72.44
2018-06-17T05:23:55.910Z,72.06
2018-06-17T05:24:55.859Z,71.87
2018-06-17T05:25:55.806Z,71.64
2018-06-17T05:26:55.718Z,71.45
2018-06-17T05:27:55.657Z,71.19
2018-06-17T05:28:55.656Z,71.16
2018-06-17T05:29:55.516Z,71.29
2018-06-17T05:30:55.455Z,70.90
2018-06-17T05:31:55.398Z,71.16
2018-06-17T05:32:55.349Z,70.68
2018-06-17T05:33:55.263Z,70.33
2018-06-17T05:34:55.196Z,70.01
2018-06-17T05:35:55.134Z,69.91
2018-06-17T05:36:55.091Z,70.49
2018-06-17T05:37:54.991Z,70.29
2018-06-17T05:38:54.934Z,69.53
2018-06-17T05:39:54.856Z,70.29
2018-06-17T05:40:54.811Z,69.62
2018-06-17T05:41:54.727Z,69.62
2018-06-17T05:42:54.673Z,70.43
2018-06-17T05:43:54.598Z,70.81
2018-06-17T05:44:54.539Z,70.90
2018-06-17T05:45:54.467Z,70.81
2018-06-17T05:46:54.406Z,70.52
2018-06-17T05:47:54.330Z,71.10
2018-06-17T05:48:54.281Z,71.00
2018-06-17T05:49:54.218Z,71.33
2018-06-17T05:50:54.145Z,70.90
2018-06-17T05:51:54.084Z,70.23
2018-06-17T05:52:54.010Z,70.33
2018-06-17T05:53:53.943Z,70.43
2018-06-17T05:54:53.884Z,71.00
2018-06-17T05:55:53.819Z,70.62
2018-06-17T05:56:53.752Z,70.72
2018-06-17T05:57:53.692Z,69.95
2018-06-17T05:58:53.614Z,70.33
2018-06-17T05:59:53.546Z,71.00
2018-06-17T06:00:53.498Z,70.62
2018-06-17T06:01:53.418Z,70.90
2018-06-17T06:02:53.374Z,70.33
2018-06-17T06:03:53.302Z,70.33
2018-06-17T06:04:53.232Z,70.52
2018-06-17T06:05:53.225Z,70.33
2018-06-17T06:06:53.096Z,70.62
2018-06-17T06:07:53.034Z,70.43
2018-06-17T06:08:52.976Z,69.56
2018-06-17T06:09:52.907Z,70.90
2018-06-17T06:10:52.845Z,70.65
2018-06-17T06:11:52.779Z,71.04
2018-06-17T06:12:52.718Z,70.75
2018-06-17T06:13:52.640Z,70.65
2018-06-17T06:14:52.591Z,71.14
2018-06-17T06:15:52.520Z,70.75
2018-06-17T06:16:52.453Z,71.42
2018-06-17T06:17:52.389Z,71.14
2018-06-17T06:18:52.329Z,70.75
2018-06-17T06:19:52.252Z,71.04
2018-06-17T06:20:52.198Z,71.33
2018-06-17T06:21:52.142Z,71.52
2018-06-17T06:22:52.068Z,71.23
2018-06-17T06:23:51.994Z,71.14
2018-06-17T06:24:51.925Z,71.46
2018-06-17T06:25:51.860Z,71.36
2018-06-17T06:26:51.806Z,71.84
2018-06-17T06:27:51.737Z,71.94
2018-06-17T06:28:51.675Z,71.65
2018-06-17T06:29:51.606Z,71.46
2018-06-17T06:30:51.564Z,71.46
2018-06-17T06:31:51.492Z,71.46
2018-06-17T06:32:51.419Z,71.78
2018-06-17T06:33:51.352Z,72.61
2018-06-17T06:34:51.307Z,71.49
2018-06-17T06:35:51.212Z,71.69
2018-06-17T06:36:51.152Z,71.40
2018-06-17T06:37:51.091Z,71.40
2018-06-17T06:38:51.030Z,72.45
2018-06-17T06:39:50.972Z,72.36
2018-06-17T06:40:50.892Z,72.17
2018-06-17T06:41:50.826Z,72.45
2018-06-17T06:42:50.780Z,72.17
2018-06-17T06:43:50.714Z,72.45
2018-06-17T06:44:50.655Z,71.53
2018-06-17T06:45:50.583Z,71.43
2018-06-17T06:46:50.512Z,70.95
2018-06-17T06:47:50.466Z,71.24
2018-06-17T06:48:50.395Z,71.53
2018-06-17T06:49:50.333Z,71.34
2018-06-17T06:50:50.294Z,71.62
2018-06-17T06:51:50.195Z,71.53
2018-06-17T06:52:50.149Z,71.53
2018-06-17T06:53:50.078Z,71.81
2018-06-17T06:54:50.003Z,72.59
2018-06-17T06:55:49.944Z,72.30
2018-06-17T06:56:49.876Z,72.30
2018-06-17T06:57:49.807Z,71.62
2018-06-17T06:58:49.744Z,71.47
2018-06-17T06:59:49.701Z,71.47
2018-06-17T07:00:49.618Z,70.98
2018-06-17T07:01:49.571Z,70.79
2018-06-17T07:02:49.501Z,70.21
2018-06-17T07:03:49.434Z,70.50
2018-06-17T07:04:49.373Z,70.21
2018-06-17T07:05:49.363Z,70.89
2018-06-17T07:06:49.274Z,70.89
2018-06-17T07:07:49.202Z,70.79
2018-06-17T07:08:49.119Z,70.60
2018-06-17T07:09:49.063Z,70.41
2018-06-17T07:10:48.982Z,70.21
2018-06-17T07:11:48.929Z,69.77
2018-06-17T07:12:48.867Z,70.73
2018-06-17T07:13:48.812Z,70.25
2018-06-17T07:14:48.752Z,70.35
2018-06-17T07:15:48.673Z,70.35
2018-06-17T07:16:48.630Z,70.64
2018-06-17T07:17:48.554Z,70.35
2018-06-17T07:18:48.495Z,70.54
2018-06-17T07:19:48.421Z,71.95
2018-06-17T07:20:48.365Z,71.18
2018-06-17T07:21:48.292Z,71.56
2018-06-17T07:22:48.239Z,71.81
2018-06-17T07:23:48.185Z,72.11
2018-06-17T07:24:48.115Z,72.24
2018-06-17T07:25:48.054Z,71.66
2018-06-17T07:26:47.992Z,71.56
2018-06-17T07:27:47.933Z,71.76
2018-06-17T07:28:47.851Z,71.85
2018-06-17T07:29:47.800Z,73.01
2018-06-17T07:30:47.732Z,72.43
2018-06-17T07:31:47.681Z,72.81
2018-06-17T07:32:47.602Z,72.53
2018-06-17T07:33:47.533Z,72.14
2018-06-17T07:34:47.483Z,71.76
2018-06-17T07:35:47.412Z,71.66
2018-06-17T07:36:47.376Z,70.98
2018-06-17T07:37:47.282Z,70.92
2018-06-17T07:38:47.218Z,70.73
2018-06-17T07:39:47.150Z,69.87
2018-06-17T07:40:47.101Z,69.19
2018-06-17T07:41:47.036Z,69.77
2018-06-17T07:42:46.971Z,70.25
2018-06-17T07:43:46.945Z,70.54
2018-06-17T07:44:46.860Z,70.83
2018-06-17T07:45:46.787Z,70.98
2018-06-17T07:46:46.725Z,70.83
2018-06-17T07:47:46.655Z,70.83
2018-06-17T07:48:46.621Z,70.06
2018-06-17T07:49:46.544Z,69.77
2018-06-17T07:50:46.486Z,69.48
2018-06-17T07:51:46.410Z,69.09
2018-06-17T07:52:46.340Z,69.38
2018-06-17T07:53:46.281Z,69.61
2018-06-17T07:54:46.220Z,70.06
2018-06-17T07:55:46.156Z,69.96
2018-06-17T07:56:46.091Z,69.38
2018-06-17T07:57:46.022Z,68.74
2018-06-17T07:58:45.958Z,68.45
2018-06-17T07:59:45.906Z,68.52
2018-06-17T08:00:45.843Z,69.48
2018-06-17T08:01:45.784Z,69.77
2018-06-17T08:02:45.704Z,69.87
2018-06-17T08:03:45.667Z,69.38
2018-06-17T08:04:45.618Z,69.38
2018-06-17T08:05:45.533Z,69.29
2018-06-17T08:06:45.467Z,69.29
2018-06-17T08:07:45.427Z,69.77
2018-06-17T08:08:45.337Z,68.99
2018-06-17T08:09:45.268Z,68.71
2018-06-17T08:10:45.273Z,68.61
2018-06-17T08:11:45.143Z,68.23
2018-06-17T08:12:45.079Z,68.55
2018-06-17T08:13:45.019Z,68.52
2018-06-17T08:14:44.965Z,68.80
2018-06-17T08:15:44.909Z,69.48
2018-06-17T08:16:44.826Z,69.57
2018-06-17T08:17:44.780Z,69.77
2018-06-17T08:18:44.700Z,69.80
2018-06-17T08:19:44.645Z,69.13
2018-06-17T08:20:44.603Z,68.84
2018-06-17T08:21:44.534Z,68.55
2018-06-17T08:22:44.463Z,68.59
2018-06-17T08:23:44.405Z,68.29
2018-06-17T08:24:44.325Z,68.49
2018-06-17T08:25:44.272Z,68.39
2018-06-17T08:26:44.203Z,67.81
2018-06-17T08:27:44.137Z,67.62
2018-06-17T08:28:44.083Z,68.29
2018-06-17T08:29:44.013Z,68.39
2018-06-17T08:30:43.959Z,67.52
2018-06-17T08:31:43.900Z,67.52
2018-06-17T08:32:43.830Z,67.52
2018-06-17T08:33:43.762Z,67.43
2018-06-17T08:34:43.718Z,67.52
2018-06-17T08:35:43.648Z,67.91
2018-06-17T08:36:43.575Z,66.66
2018-06-17T08:37:43.516Z,66.40
2018-06-17T08:38:43.482Z,65.91
2018-06-17T08:39:43.406Z,66.01
2018-06-17T08:40:43.348Z,65.63
2018-06-17T08:41:43.278Z,65.72
2018-06-17T08:42:43.213Z,65.91
2018-06-17T08:43:43.155Z,65.91
2018-06-17T08:44:43.107Z,66.01
2018-06-17T08:45:43.015Z,66.20
2018-06-17T08:46:42.984Z,66.05
2018-06-17T08:47:42.932Z,65.75
2018-06-17T08:48:42.842Z,65.47
2018-06-17T08:49:42.782Z,65.63
2018-06-17T08:50:42.721Z,65.47
2018-06-17T08:51:42.656Z,65.95
2018-06-17T08:52:42.604Z,66.97
2018-06-17T08:53:42.529Z,67.36
2018-06-17T08:54:42.463Z,66.69
2018-06-17T08:55:42.406Z,66.88
2018-06-17T08:56:42.365Z,66.69
2018-06-17T08:57:42.375Z,66.78
2018-06-17T08:58:42.229Z,66.40
2018-06-17T08:59:42.171Z,66.63
2018-06-17T09:00:42.099Z,66.82
2018-06-17T09:01:42.037Z,66.53
2018-06-17T09:02:41.971Z,66.49
2018-06-17T09:03:41.957Z,66.91
2018-06-17T09:04:41.836Z,66.53
2018-06-17T09:05:41.788Z,66.91
2018-06-17T09:06:41.724Z,67.17
2018-06-17T09:07:41.667Z,66.88
2018-06-17T09:08:41.605Z,67.65
2018-06-17T09:09:41.543Z,67.11
2018-06-17T09:10:41.482Z,67.01
2018-06-17T09:11:41.419Z,67.01
2018-06-17T09:12:41.361Z,67.11
2018-06-17T09:13:41.299Z,66.72
2018-06-17T09:14:41.236Z,66.24
2018-06-17T09:15:41.178Z,66.43
2018-06-17T09:16:41.101Z,66.91
2018-06-17T09:17:41.045Z,67.11
2018-06-17T09:18:40.974Z,66.24
2018-06-17T09:19:40.922Z,66.72
2018-06-17T09:20:40.862Z,67.01
2018-06-17T09:21:40.799Z,68.07
2018-06-17T09:22:40.726Z,67.59
2018-06-17T09:23:40.671Z,67.11
2018-06-17T09:24:40.614Z,67.40
2018-06-17T09:25:40.556Z,67.88
2018-06-17T09:26:40.491Z,67.69
2018-06-17T09:27:40.432Z,67.78
2018-06-17T09:28:40.359Z,67.11
2018-06-17T09:29:40.323Z,67.04
2018-06-17T09:30:40.243Z,66.56
2018-06-17T09:31:40.235Z,66.27
2018-06-17T09:32:40.111Z,65.98
2018-06-17T09:33:40.055Z,66.75
2018-06-17T09:34:39.994Z,66.27
2018-06-17T09:35:39.925Z,66.94
2018-06-17T09:36:39.868Z,66.72
2018-06-17T09:37:39.808Z,66.91
2018-06-17T09:38:39.750Z,67.59
2018-06-17T09:39:39.675Z,68.88
2018-06-17T09:40:39.622Z,69.23
2018-06-17T09:41:39.550Z,69.23
2018-06-17T09:42:39.510Z,70.14
2018-06-17T09:43:39.427Z,67.97
2018-06-17T09:44:39.380Z,70.00
2018-06-17T09:45:39.302Z,69.36
2018-06-17T09:46:39.236Z,71.78
2018-06-17T09:47:39.187Z,68.98
2018-06-17T09:48:39.129Z,70.72
2018-06-17T09:49:39.056Z,69.46
2018-06-17T09:50:38.999Z,68.40
2018-06-17T09:51:38.948Z,67.04
2018-06-17T09:52:38.878Z,68.78
2018-06-17T09:53:38.812Z,67.82
2018-06-17T09:54:38.749Z,67.82
2018-06-17T09:55:38.704Z,67.72
2018-06-17T09:56:38.628Z,66.75
2018-06-17T09:57:38.565Z,67.82
2018-06-17T09:58:38.495Z,67.08
2018-06-17T09:59:38.447Z,66.20
2018-06-17T10:00:38.381Z,65.92
2018-06-17T10:01:38.350Z,66.59
2018-06-17T10:02:38.250Z,67.08
2018-06-17T10:03:38.186Z,66.78
2018-06-17T10:04:38.156Z,66.59
2018-06-17T10:05:38.062Z,68.43
2018-06-17T10:06:38.922Z,66.01
2018-06-17T10:07:37.974Z,66.01
2018-06-17T10:08:37.881Z,65.53
2018-06-17T10:09:37.813Z,66.01
2018-06-17T10:10:37.751Z,66.40
2018-06-17T10:11:37.684Z,70.07
2018-06-17T10:12:37.638Z,67.27
2018-06-17T10:13:37.633Z,65.56
2018-06-17T10:14:37.507Z,66.91
2018-06-17T10:15:37.449Z,66.05
2018-06-17T10:16:37.381Z,65.27
2018-06-17T10:17:37.321Z,66.14
2018-06-17T10:18:37.270Z,67.21
2018-06-17T10:19:37.192Z,68.66
2018-06-17T10:20:37.130Z,68.82
2018-06-17T10:21:37.075Z,68.43
2018-06-17T10:22:37.012Z,67.88
2018-06-17T10:23:36.946Z,69.59
2018-06-17T10:24:36.895Z,68.62
2018-06-17T10:25:36.835Z,67.11
2018-06-17T10:26:36.777Z,67.94
2018-06-17T10:27:36.720Z,68.43
2018-06-17T10:28:36.644Z,67.69
2018-06-17T10:29:36.654Z,67.88
2018-06-17T10:30:36.512Z,67.91
2018-06-17T10:31:36.465Z,70.98
2018-06-17T10:32:36.392Z,70.14
2018-06-17T10:33:36.331Z,70.50
2018-06-17T10:34:36.276Z,67.40
2018-06-17T10:35:36.211Z,70.88
2018-06-17T10:36:36.152Z,69.56
2018-06-17T10:37:36.095Z,65.95
2018-06-17T10:38:36.026Z,65.75
2018-06-17T10:39:35.968Z,66.72
2018-06-17T10:40:35.905Z,69.88
2018-06-17T10:41:35.854Z,69.98
2018-06-17T10:42:35.784Z,69.40
2018-06-17T10:43:35.789Z,71.94
2018-06-17T10:44:35.669Z,67.21
2018-06-17T10:45:35.602Z,67.79
2018-06-17T10:46:35.530Z,70.01
2018-06-17T10:47:35.458Z,66.91
2018-06-17T10:48:35.402Z,66.08
2018-06-17T10:49:35.345Z,66.05
2018-06-17T10:50:35.371Z,65.30
2018-06-17T10:51:35.260Z,66.27
2018-06-17T10:52:35.160Z,65.59
2018-06-17T10:53:35.107Z,66.08
2018-06-17T10:54:35.029Z,65.98
2018-06-17T10:55:35.049Z,65.01
2018-06-17T10:56:34.958Z,67.14
2018-06-17T10:57:34.862Z,65.79
2018-06-17T10:58:34.803Z,65.79
2018-06-17T10:59:34.741Z,65.50
2018-06-17T11:00:34.707Z,65.40
2018-06-17T11:01:34.605Z,65.30
2018-06-17T11:02:34.554Z,67.69
2018-06-17T11:03:34.484Z,66.75
2018-06-17T11:04:34.424Z,65.56
2018-06-17T11:05:34.445Z,63.85
2018-06-17T11:06:34.296Z,65.01
2018-06-17T11:07:34.226Z,65.11
2018-06-17T11:08:34.174Z,64.82
2018-06-17T11:09:34.125Z,66.17
2018-06-17T11:10:34.050Z,65.11
2018-06-17T11:11:33.997Z,67.14
2018-06-17T11:12:33.926Z,66.17
2018-06-17T11:13:33.879Z,64.82
2018-06-17T11:14:33.816Z,63.85
2018-06-17T11:15:33.747Z,64.62
2018-06-17T11:16:33.685Z,65.50
2018-06-17T11:17:33.622Z,64.34
2018-06-17T11:18:33.569Z,65.40
2018-06-17T11:19:33.525Z,66.14
2018-06-17T11:20:33.437Z,67.01
2018-06-17T11:21:33.409Z,66.37
2018-06-17T11:22:33.310Z,65.66
2018-06-17T11:23:33.253Z,67.24
2018-06-17T11:24:33.197Z,65.69
2018-06-17T11:25:33.133Z,66.05
2018-06-17T11:26:33.077Z,66.47
2018-06-17T11:27:33.056Z,65.79
2018-06-17T11:28:32.940Z,65.01
2018-06-17T11:29:32.883Z,65.20
2018-06-17T11:30:32.833Z,67.59
2018-06-17T11:31:32.765Z,67.11
2018-06-17T11:32:32.709Z,68.95
2018-06-17T11:33:32.646Z,66.05
2018-06-17T11:34:32.582Z,65.08
2018-06-17T11:35:32.529Z,64.82
2018-06-17T11:36:32.467Z,64.62
2018-06-17T11:37:32.396Z,64.14
2018-06-17T11:38:32.361Z,65.30
2018-06-17T11:39:32.269Z,65.40
2018-06-17T11:40:32.215Z,65.50
2018-06-17T11:41:32.162Z,65.50
2018-06-17T11:42:32.096Z,65.79
2018-06-17T11:43:32.034Z,66.08
2018-06-17T11:44:31.981Z,65.20
2018-06-17T11:45:31.902Z,64.53
2018-06-17T11:46:31.845Z,65.30
2018-06-17T11:47:31.786Z,64.04
2018-06-17T11:48:31.726Z,69.95
2018-06-17T11:49:31.653Z,68.49
2018-06-17T11:50:31.601Z,67.14
2018-06-17T11:51:31.546Z,64.72
2018-06-17T11:52:31.480Z,65.79
2018-06-17T11:53:31.415Z,66.95
2018-06-17T11:54:31.354Z,66.17
2018-06-17T11:55:31.289Z,65.20
2018-06-17T11:56:31.236Z,69.08
2018-06-17T11:57:31.174Z,68.11
2018-06-17T11:58:31.099Z,64.53
2018-06-17T12:00:05.658Z,64.66
2018-06-17T12:01:05.473Z,63.40
2018-06-17T12:03:00.842Z,62.04
2018-06-17T12:04:00.671Z,62.14
2018-06-17T12:05:56.014Z,61.95
2018-06-17T12:06:55.886Z,61.36
2018-06-17T12:08:51.224Z,60.33
2018-06-17T12:09:51.110Z,60.59
2018-06-17T12:11:45.438Z,63.89
2018-06-17T12:12:45.314Z,62.92
2018-06-17T12:14:40.665Z,64.07
2018-06-17T12:15:40.538Z,61.76
2018-06-17T12:17:35.847Z,60.78
2018-06-17T12:18:35.738Z,62.14
2018-06-17T12:20:31.018Z,62.63
2018-06-17T12:21:30.924Z,62.24
2018-06-17T12:23:26.194Z,62.34
2018-06-17T12:24:26.124Z,62.92
2018-06-17T12:26:21.442Z,62.14
2018-06-17T12:27:21.339Z,61.95
2018-06-17T12:29:16.658Z,60.98
2018-06-17T12:30:16.553Z,60.50
2018-06-17T12:32:11.837Z,62.14
2018-06-17T12:33:11.763Z,61.27
2018-06-17T12:35:07.057Z,60.69
2018-06-17T12:36:06.956Z,62.63
2018-06-17T12:38:02.286Z,61.59
2018-06-17T12:39:02.183Z,61.49
2018-06-17T12:40:57.493Z,61.11
2018-06-17T12:41:57.385Z,61.01
2018-06-17T12:43:52.667Z,60.72
2018-06-17T12:44:52.578Z,60.04
2018-06-17T12:46:47.950Z,60.33
2018-06-17T12:47:47.838Z,60.62
2018-06-17T12:49:43.921Z,60.24
2018-06-17T12:50:43.850Z,60.24
2018-06-17T12:52:39.192Z,61.79
2018-06-17T12:53:39.083Z,60.52
2018-06-17T12:55:34.382Z,59.84
2018-06-17T12:56:34.306Z,59.66
2018-06-17T12:58:29.619Z,58.69
2018-06-17T12:59:29.499Z,58.69
2018-06-17T13:01:24.818Z,57.91
2018-06-17T13:02:24.730Z,58.59
2018-06-17T13:04:20.041Z,58.11
2018-06-17T13:05:19.937Z,58.39
2018-06-17T13:07:15.232Z,57.53
2018-06-17T13:08:15.133Z,57.91
2018-06-17T13:10:10.448Z,56.00
2018-06-17T13:11:10.340Z,56.56
2018-06-17T13:13:05.725Z,55.13
2018-06-17T13:14:05.536Z,55.52
2018-06-17T13:16:00.855Z,55.04
2018-06-17T13:17:00.737Z,55.40